createdAt,value
2023-02-12T00:00:01.329Z,91.66
2023-02-12T00:02:35.630Z,91.17
2023-02-12T00:05:10.263Z,91.70
2023-02-12T00:07:43.523Z,91.60
2023-02-12T00:10:16.890Z,91.86
2023-02-12T00:12:50.008Z,92.40
2023-02-12T00:15:23.451Z,92.48
2023-02-12T00:17:56.598Z,92.32
2023-02-12T00:20:31.134Z,92.82
2023-02-12T00:23:04.365Z,92.82
2023-02-12T00:25:42.097Z,92.23
2023-02-12T00:28:15.458Z,92.09
2023-02-12T00:30:48.806Z,92.36
2023-02-12T00:33:22.123Z,91.74
2023-02-12T00:35:59.881Z,92.07
2023-02-12T00:38:33.233Z,92.40
2023-02-12T00:41:06.662Z,92.74
2023-02-12T00:43:40.052Z,92.36
2023-02-12T00:46:13.505Z,93.13
2023-02-12T00:48:46.684Z,92.76
2023-02-12T00:51:21.370Z,93.19
2023-02-12T00:53:54.493Z,93.41
2023-02-12T00:56:27.720Z,93.66
2023-02-12T00:59:00.822Z,93.33
2023-02-12T01:01:34.176Z,93.22
2023-02-12T01:04:07.479Z,93.52
2023-02-12T01:06:42.320Z,93.13
2023-02-12T01:09:15.971Z,93.41
2023-02-12T01:11:49.186Z,93.31
2023-02-12T01:14:22.401Z,93.30
2023-02-12T01:16:55.538Z,93.63
2023-02-12T01:19:28.889Z,93.55
2023-02-12T01:22:03.464Z,93.55
2023-02-12T01:24:36.591Z,93.07
2023-02-12T01:27:09.781Z,92.88
2023-02-12T01:29:44.678Z,92.64
2023-02-12T01:32:17.903Z,92.64
2023-02-12T01:34:51.076Z,92.90
2023-02-12T01:37:25.606Z,93.85
2023-02-12T01:39:58.760Z,94.10
2023-02-12T01:42:31.915Z,93.90
2023-02-12T01:45:50.030Z,93.79
2023-02-12T01:48:28.219Z,93.36
2023-02-12T01:51:03.865Z,93.88
2023-02-12T01:53:43.174Z,93.48
2023-02-12T01:56:17.679Z,93.62
2023-02-12T01:58:54.177Z,93.64
2023-02-12T02:01:30.339Z,93.86
2023-02-12T02:04:09.909Z,93.83
2023-02-12T02:06:50.542Z,94.13
2023-02-12T02:09:26.699Z,94.06
2023-02-12T02:12:17.688Z,93.87
2023-02-12T02:14:54.148Z,94.06
2023-02-12T02:17:48.460Z,94.09
2023-02-12T02:21:14.441Z,94.65
2023-02-12T02:24:06.892Z,95.24
2023-02-12T02:27:14.767Z,94.88
2023-02-12T02:30:33.089Z,95.06
2023-02-12T02:33:28.265Z,93.83
2023-02-12T02:36:17.132Z,94.35
2023-02-12T02:38:55.922Z,94.63
2023-02-12T02:41:36.125Z,94.61
2023-02-12T02:44:16.358Z,94.84
2023-02-12T02:46:54.511Z,95.39
2023-02-12T02:49:35.167Z,95.57
2023-02-12T02:52:13.781Z,95.23
2023-02-12T02:54:51.810Z,94.70
2023-02-12T02:57:31.522Z,95.19
2023-02-12T03:00:13.358Z,95.88
2023-02-12T03:02:53.885Z,95.46
2023-02-12T03:05:33.480Z,95.24
2023-02-12T03:08:12.155Z,95.40
2023-02-12T03:10:50.260Z,95.42
2023-02-12T03:13:29.462Z,95.46
2023-02-12T03:16:08.535Z,95.71
2023-02-12T03:18:48.646Z,95.82
2023-02-12T03:21:30.143Z,95.57
2023-02-12T03:24:12.528Z,94.13
2023-02-12T03:26:52.623Z,94.34
2023-02-12T03:29:26.079Z,94.42
2023-02-12T03:32:27.292Z,95.32
2023-02-12T03:35:11.688Z,95.03
2023-02-12T03:37:54.486Z,95.11
2023-02-12T03:40:35.431Z,95.33
2023-02-12T03:43:17.002Z,95.02
2023-02-12T03:45:57.552Z,95.50
2023-02-12T03:48:37.005Z,96.03
2023-02-12T03:51:18.726Z,96.24
2023-02-12T03:53:51.959Z,96.37
2023-02-12T03:56:30.397Z,96.18
2023-02-12T03:59:05.572Z,96.03
2023-02-12T04:01:38.971Z,96.20
2023-02-12T04:04:12.903Z,95.90
2023-02-12T04:06:50.329Z,95.70
2023-02-12T04:09:25.887Z,95.56
2023-02-12T04:12:21.880Z,95.44
2023-02-12T04:15:04.694Z,95.67
2023-02-12T04:17:51.077Z,95.47
2023-02-12T04:20:34.580Z,96.05
2023-02-12T04:23:20.123Z,95.72
2023-02-12T04:26:04.360Z,96.54
2023-02-12T04:28:47.708Z,96.19
2023-02-12T04:31:31.629Z,96.80
2023-02-12T04:34:12.040Z,96.48
2023-02-12T04:36:51.838Z,96.65
2023-02-12T04:39:30.164Z,96.18
2023-02-12T04:42:04.107Z,96.49
2023-02-12T04:44:44.089Z,96.55
2023-02-12T04:47:18.321Z,96.58
2023-02-12T04:49:51.423Z,96.49
2023-02-12T04:52:24.606Z,96.90
2023-02-12T04:54:59.167Z,96.77
2023-02-12T04:57:32.327Z,96.97
2023-02-12T05:00:06.965Z,96.88
2023-02-12T05:02:40.226Z,96.54
2023-02-12T05:05:13.466Z,96.48
2023-02-12T05:07:46.584Z,96.49
2023-02-12T05:10:21.481Z,96.30
2023-02-12T05:12:55.218Z,96.62
2023-02-12T05:15:28.553Z,96.58
2023-02-12T05:18:01.715Z,96.20
2023-02-12T05:20:34.877Z,96.40
2023-02-12T05:23:07.987Z,95.94
2023-02-12T05:25:42.473Z,96.28
2023-02-12T05:28:15.775Z,96.95
2023-02-12T05:30:48.970Z,97.05
2023-02-12T05:33:22.515Z,97.95
2023-02-12T05:35:56.197Z,98.27
2023-02-12T05:38:29.524Z,98.77
2023-02-12T05:41:05.859Z,98.09
2023-02-12T05:43:39.139Z,98.12
2023-02-12T05:46:13.166Z,98.03
2023-02-12T05:48:46.585Z,97.85
2023-02-12T05:51:23.030Z,98.17
2023-02-12T05:54:00.257Z,97.58
2023-02-12T05:56:37.576Z,97.10
2023-02-12T05:59:16.534Z,97.01
2023-02-12T06:01:51.539Z,97.18
2023-02-12T06:04:27.147Z,97.44
2023-02-12T06:07:02.204Z,97.26
2023-02-12T06:09:36.108Z,98.04
2023-02-12T06:12:10.590Z,98.18
2023-02-12T06:14:44.278Z,98.09
2023-02-12T06:17:17.369Z,98.33
2023-02-12T06:19:50.661Z,98.15
2023-02-12T06:22:23.763Z,97.99
2023-02-12T06:24:56.865Z,97.47
2023-02-12T06:27:31.308Z,97.37
2023-02-12T06:30:04.942Z,97.37
2023-02-12T06:32:38.037Z,97.48
2023-02-12T06:35:11.128Z,97.71
2023-02-12T06:37:44.260Z,97.80
2023-02-12T06:40:18.344Z,97.23
2023-02-12T06:42:52.832Z,97.21
2023-02-12T06:45:25.942Z,96.14
2023-02-12T06:47:59.066Z,96.69
2023-02-12T06:50:32.351Z,96.62
2023-02-12T06:53:05.472Z,96.72
2023-02-12T06:55:38.597Z,97.33
2023-02-12T06:58:13.047Z,97.61
2023-02-12T07:00:46.235Z,97.50
2023-02-12T07:03:22.051Z,97.59
2023-02-12T07:05:55.388Z,97.73
2023-02-12T07:08:29.318Z,97.55
2023-02-12T07:11:02.483Z,97.75
2023-02-12T07:13:37.420Z,98.17
2023-02-12T07:16:13.219Z,98.10
2023-02-12T07:18:46.986Z,97.97
2023-02-12T07:21:21.803Z,97.62
2023-02-12T07:23:55.456Z,98.05
2023-02-12T07:26:28.969Z,98.01
2023-02-12T07:29:03.484Z,98.07
2023-02-12T07:31:36.704Z,98.29
2023-02-12T07:34:12.328Z,97.78
2023-02-12T07:36:45.395Z,98.13
2023-02-12T07:39:18.495Z,97.95
2023-02-12T07:41:51.826Z,98.07
2023-02-12T07:44:26.343Z,97.90
2023-02-12T07:46:59.492Z,97.17
2023-02-12T07:49:46.639Z,97.90
2023-02-12T07:52:19.756Z,97.48
2023-02-12T07:54:52.807Z,97.65
2023-02-12T07:57:26.042Z,97.56
2023-02-12T08:00:00.512Z,97.05
2023-02-12T08:02:33.585Z,94.60
2023-02-12T08:05:07.800Z,95.20
2023-02-12T08:07:40.840Z,95.84
2023-02-12T08:10:13.890Z,96.50
2023-02-12T08:12:46.861Z,96.76
2023-02-12T08:15:21.285Z,96.61
2023-02-12T08:17:55.640Z,96.88
2023-02-12T08:20:28.743Z,96.39
2023-02-12T08:23:01.763Z,95.89
2023-02-12T08:25:34.776Z,95.45
2023-02-12T08:28:07.854Z,95.30
2023-02-12T08:30:42.273Z,94.74
2023-02-12T08:33:15.334Z,93.95
2023-02-12T08:35:48.390Z,94.18
2023-02-12T08:38:21.403Z,94.51
2023-02-12T08:40:54.534Z,94.12
2023-02-12T08:43:28.577Z,94.70
2023-02-12T08:46:08.997Z,94.84
2023-02-12T08:48:43.665Z,94.28
2023-02-12T08:51:20.163Z,93.87
2023-02-12T08:53:55.801Z,92.80
2023-02-12T08:56:30.924Z,92.99
2023-02-12T08:59:06.641Z,93.47
2023-02-12T09:01:42.694Z,93.49
2023-02-12T09:04:18.716Z,92.61
2023-02-12T09:06:52.646Z,92.16
2023-02-12T09:09:25.723Z,91.69
2023-02-12T09:11:58.799Z,91.34
2023-02-12T09:14:31.819Z,90.95
2023-02-12T09:17:06.287Z,90.40
2023-02-12T09:19:39.480Z,90.03
2023-02-12T09:22:12.946Z,89.10
2023-02-12T09:24:46.194Z,89.54
2023-02-12T09:27:19.322Z,89.97
2023-02-12T09:29:52.374Z,89.78
2023-02-12T09:32:26.835Z,90.31
2023-02-12T09:34:59.908Z,90.29
2023-02-12T09:37:32.984Z,90.48
2023-02-12T09:40:08.128Z,90.07
2023-02-12T09:43:02.471Z,90.52
2023-02-12T09:45:39.476Z,90.06
2023-02-12T09:48:38.336Z,89.31
2023-02-12T09:51:12.456Z,88.48
2023-02-12T09:53:48.466Z,87.51
2023-02-12T09:56:24.208Z,87.11
2023-02-12T09:59:03.023Z,86.45
2023-02-12T10:01:36.874Z,87.04
2023-02-12T10:04:11.532Z,88.45
2023-02-12T10:06:53.839Z,88.00
2023-02-12T10:09:44.165Z,87.22
2023-02-12T10:12:25.899Z,86.97
2023-02-12T10:15:15.517Z,86.76
2023-02-12T10:17:57.398Z,85.44
2023-02-12T10:21:03.774Z,85.09
2023-02-12T10:23:58.746Z,84.86
2023-02-12T10:26:35.849Z,83.54
2023-02-12T10:29:16.335Z,83.63
2023-02-12T10:31:54.691Z,85.00
2023-02-12T10:34:34.475Z,82.57
2023-02-12T10:37:19.561Z,84.53
2023-02-12T10:39:58.273Z,83.03
2023-02-12T10:42:39.763Z,83.40
2023-02-12T10:45:16.477Z,83.34
2023-02-12T10:47:54.418Z,83.16
2023-02-12T10:50:40.714Z,82.88
2023-02-12T10:53:23.147Z,82.52
2023-02-12T10:56:14.825Z,81.84
2023-02-12T10:58:59.305Z,81.75
2023-02-12T11:01:35.537Z,82.25
2023-02-12T11:04:25.285Z,82.18
2023-02-12T11:07:01.173Z,81.22
2023-02-12T11:09:45.229Z,81.13
2023-02-12T11:12:25.193Z,80.91
2023-02-12T11:15:00.937Z,81.82
2023-02-12T11:17:38.917Z,81.62
2023-02-12T11:20:25.906Z,82.30
2023-02-12T11:23:01.817Z,80.82
2023-02-12T11:25:39.026Z,81.06
2023-02-12T11:28:18.873Z,82.07
2023-02-12T11:30:57.158Z,81.17
2023-02-12T11:33:36.076Z,81.52
2023-02-12T11:36:18.637Z,80.72
2023-02-12T11:38:55.553Z,80.34
2023-02-12T11:41:36.210Z,82.38
2023-02-12T11:44:14.835Z,82.66
2023-02-12T11:46:50.435Z,82.63
2023-02-12T11:49:29.465Z,82.62
2023-02-12T11:52:05.418Z,81.58
2023-02-12T11:54:42.768Z,82.24
2023-02-12T11:57:39.556Z,80.68
2023-02-12T12:00:19.055Z,80.31
2023-02-12T12:02:59.267Z,81.90
2023-02-12T12:05:39.617Z,82.04
2023-02-12T12:08:21.292Z,80.84
2023-02-12T12:11:01.952Z,79.96
2023-02-12T12:13:44.368Z,79.39
2023-02-12T12:16:43.519Z,79.10
2023-02-12T12:19:40.380Z,78.30
2023-02-12T12:22:27.568Z,78.55
2023-02-12T12:25:11.776Z,78.22
2023-02-12T12:28:05.835Z,78.10
2023-02-12T12:31:02.819Z,78.25
2023-02-12T12:33:43.381Z,78.83
2023-02-12T12:37:07.424Z,77.95
2023-02-12T12:39:58.983Z,77.83
2023-02-12T12:42:59.226Z,78.79
2023-02-12T12:45:52.481Z,78.63
2023-02-12T12:48:43.149Z,79.42
2023-02-12T12:51:36.151Z,80.24
2023-02-12T12:54:25.682Z,80.74
2023-02-12T12:57:07.089Z,78.81
2023-02-12T13:00:12.773Z,78.90
2023-02-12T13:03:49.955Z,78.78
2023-02-12T13:06:44.875Z,79.42
2023-02-12T13:09:43.747Z,80.59
2023-02-12T13:13:01.667Z,80.83
2023-02-12T13:15:44.755Z,79.39
2023-02-12T13:18:31.944Z,79.15
2023-02-12T13:21:15.192Z,78.85
2023-02-12T13:23:55.283Z,79.41
2023-02-12T13:26:38.733Z,78.92
2023-02-12T13:29:18.570Z,79.86
2023-02-12T13:31:56.435Z,79.27
2023-02-12T13:34:32.613Z,80.46
2023-02-12T13:37:08.812Z,79.15
2023-02-12T13:39:48.309Z,80.42
2023-02-12T13:42:40.176Z,80.72
2023-02-12T13:45:43.288Z,79.95
2023-02-12T13:48:37.886Z,79.97
2023-02-12T13:51:24.738Z,80.24
2023-02-12T13:54:16.048Z,79.74
2023-02-12T13:56:52.846Z,79.47
2023-02-12T13:59:51.147Z,79.98
2023-02-12T14:02:44.627Z,80.41
2023-02-12T14:05:31.729Z,79.59
2023-02-12T14:08:08.046Z,79.55
2023-02-12T14:10:42.877Z,79.18
2023-02-12T14:13:22.575Z,78.28
2023-02-12T14:15:59.261Z,78.10
2023-02-12T14:18:35.868Z,78.76
2023-02-12T14:21:45.366Z,80.06
2023-02-12T14:24:52.661Z,78.78
2023-02-12T14:27:36.066Z,77.26
2023-02-12T14:30:34.529Z,77.91
2023-02-12T14:33:27.624Z,77.83
2023-02-12T14:36:18.257Z,78.98
2023-02-12T14:39:03.890Z,78.66
2023-02-12T14:41:41.637Z,77.91
2023-02-12T14:44:47.620Z,78.21
2023-02-12T14:47:54.809Z,78.51
2023-02-12T14:50:37.348Z,77.72
2023-02-12T14:53:30.926Z,78.66
2023-02-12T14:56:05.059Z,78.61
2023-02-12T14:58:39.206Z,77.74
2023-02-12T15:01:12.856Z,78.97
2023-02-12T15:03:53.916Z,78.30
2023-02-12T15:06:38.472Z,78.21
2023-02-12T15:09:17.488Z,77.76
2023-02-12T15:12:04.463Z,78.09
2023-02-12T15:14:41.310Z,78.74
2023-02-12T15:17:20.092Z,78.68
2023-02-12T15:19:59.893Z,79.59
2023-02-12T15:22:36.636Z,78.55
2023-02-12T15:25:27.263Z,78.70
2023-02-12T15:28:04.756Z,78.34
2023-02-12T15:30:38.679Z,79.27
2023-02-12T15:33:25.870Z,78.40
2023-02-12T15:36:02.260Z,79.06
2023-02-12T15:38:39.855Z,77.63
2023-02-12T15:41:28.764Z,76.87
2023-02-12T15:44:03.607Z,77.27
2023-02-12T15:46:37.097Z,78.99
2023-02-12T15:49:22.229Z,78.15
2023-02-12T15:51:58.263Z,78.72
2023-02-12T15:54:31.745Z,78.62
2023-02-12T15:57:12.640Z,79.51
2023-02-12T15:59:52.193Z,79.25
2023-02-12T16:02:29.785Z,79.39
2023-02-12T16:05:06.196Z,79.29
2023-02-12T16:07:40.709Z,80.01
2023-02-12T16:10:16.701Z,80.02
2023-02-12T16:12:51.553Z,80.77
2023-02-12T16:15:30.782Z,80.09
2023-02-12T16:18:06.801Z,80.74
2023-02-12T16:20:39.862Z,80.86
2023-02-12T16:23:15.216Z,80.88
2023-02-12T16:25:56.427Z,81.40
2023-02-12T16:28:32.066Z,82.14
2023-02-12T16:31:11.668Z,82.26
2023-02-12T16:33:49.378Z,82.63
2023-02-12T16:36:32.362Z,82.78
2023-02-12T16:39:08.531Z,83.07
2023-02-12T16:41:54.684Z,83.98
2023-02-12T16:44:32.036Z,84.37
2023-02-12T16:47:05.745Z,84.42
2023-02-12T16:49:38.907Z,84.81
2023-02-12T16:52:32.752Z,85.43
2023-02-12T16:55:13.069Z,85.48
2023-02-12T16:57:46.207Z,85.54
2023-02-12T17:00:20.520Z,86.32
2023-02-12T17:02:56.092Z,86.82
2023-02-12T17:05:29.141Z,86.85
2023-02-12T17:08:02.249Z,87.27
2023-02-12T17:10:36.635Z,87.45
2023-02-12T17:13:10.897Z,87.35
2023-02-12T17:15:51.069Z,87.93
2023-02-12T17:18:24.961Z,88.71
2023-02-12T17:21:01.808Z,89.41
2023-02-12T17:23:35.505Z,88.72
2023-02-12T17:26:09.928Z,89.45
2023-02-12T17:28:43.072Z,90.37
2023-02-12T17:31:16.571Z,90.20
2023-02-12T17:33:49.592Z,91.38
2023-02-12T17:36:23.475Z,91.36
2023-02-12T17:38:56.511Z,91.63
2023-02-12T17:41:31.124Z,91.61
2023-02-12T17:44:04.366Z,94.15
2023-02-12T17:46:37.739Z,95.06
2023-02-12T17:49:11.285Z,94.77
2023-02-12T17:51:44.351Z,94.54
2023-02-12T17:54:18.753Z,94.02
2023-02-12T17:56:53.165Z,94.46
2023-02-12T17:59:26.501Z,94.64
2023-02-12T18:02:00.540Z,95.05
2023-02-12T18:04:35.698Z,95.47
2023-02-12T18:07:13.634Z,95.13
2023-02-12T18:09:51.650Z,95.65
2023-02-12T18:12:26.228Z,96.02
2023-02-12T18:14:59.937Z,96.11
2023-02-12T18:17:34.122Z,95.92
2023-02-12T18:20:12.015Z,96.17
2023-02-12T18:22:45.918Z,97.59
2023-02-12T18:25:19.118Z,97.36
2023-02-12T18:27:53.717Z,97.34
2023-02-12T18:30:26.872Z,97.72
2023-02-12T18:33:00.053Z,98.45
2023-02-12T18:35:33.328Z,97.32
2023-02-12T18:38:06.436Z,98.02
2023-02-12T18:40:41.866Z,98.11
2023-02-12T18:43:16.362Z,98.13
2023-02-12T18:45:49.696Z,98.39
2023-02-12T18:48:23.296Z,98.64
2023-02-12T18:50:56.612Z,98.63
2023-02-12T18:53:29.929Z,99.25
2023-02-12T18:56:05.937Z,99.82
2023-02-12T18:58:40.984Z,99.99
2023-02-12T19:01:15.415Z,99.27
2023-02-12T19:03:49.523Z,99.83
2023-02-12T19:06:22.951Z,99.50
2023-02-12T19:08:57.073Z,98.60
2023-02-12T19:11:31.392Z,98.66
2023-02-12T19:14:06.394Z,98.34
2023-02-12T19:16:40.027Z,99.18
2023-02-12T19:19:14.755Z,99.15
2023-02-12T19:21:49.117Z,99.00
2023-02-12T19:24:22.718Z,98.99
2023-02-12T19:26:56.065Z,99.27
2023-02-12T19:29:30.736Z,98.96
2023-02-12T19:32:04.033Z,99.40
2023-02-12T19:34:37.271Z,99.92
2023-02-12T19:37:11.775Z,100.00
2023-02-12T19:39:45.259Z,100.00
2023-02-12T19:42:18.375Z,100.00
2023-02-12T19:44:52.965Z,99.98
2023-02-12T19:47:26.945Z,99.84
2023-02-12T19:50:00.190Z,99.97
2023-02-12T19:52:33.381Z,100.00
2023-02-12T19:55:07.342Z,100.00
2023-02-12T19:57:41.097Z,100.00
2023-02-12T20:00:17.167Z,100.00
2023-02-12T20:02:50.320Z,100.00
2023-02-12T20:05:23.470Z,100.00
2023-02-12T20:07:56.710Z,100.00
2023-02-12T20:10:30.026Z,100.00
2023-02-12T20:13:03.096Z,100.00
2023-02-12T20:15:38.696Z,100.00
2023-02-12T20:18:12.235Z,100.00
2023-02-12T20:20:45.335Z,100.00
2023-02-12T20:23:18.524Z,100.00
2023-02-12T20:25:51.957Z,100.00
2023-02-12T20:28:25.123Z,100.00
2023-02-12T20:31:00.165Z,100.00
2023-02-12T20:33:33.456Z,100.00
2023-02-12T20:36:08.122Z,100.00
2023-02-12T20:38:42.602Z,100.00
2023-02-12T20:41:15.773Z,100.00
2023-02-12T20:43:49.063Z,100.00
2023-02-12T20:46:25.800Z,100.00
2023-02-12T20:48:58.957Z,100.00
2023-02-12T20:51:32.169Z,100.00
2023-02-12T20:54:05.836Z,100.00
2023-02-12T20:56:39.925Z,100.00
2023-02-12T20:59:13.206Z,100.00
2023-02-12T21:01:48.071Z,100.00
2023-02-12T21:04:21.598Z,100.00
2023-02-12T21:06:54.950Z,100.00
2023-02-12T21:09:29.521Z,100.00
2023-02-12T21:12:02.639Z,100.00
2023-02-12T21:14:36.717Z,100.00
2023-02-12T21:17:11.340Z,100.00
2023-02-12T21:19:44.413Z,100.00
2023-02-12T21:22:17.784Z,100.00
2023-02-12T21:24:50.890Z,100.00
2023-02-12T21:27:23.987Z,100.00
2023-02-12T21:29:57.048Z,100.00
2023-02-12T21:32:33.205Z,100.00
2023-02-12T21:35:07.034Z,100.00
2023-02-12T21:37:40.116Z,100.00
2023-02-12T21:40:13.900Z,100.00
2023-02-12T21:42:47.013Z,100.00
2023-02-12T21:45:20.101Z,100.00
2023-02-12T21:47:54.503Z,100.00
2023-02-12T21:50:27.726Z,100.00
2023-02-12T21:53:00.815Z,100.00
2023-02-12T21:55:37.472Z,100.00
2023-02-12T21:58:10.631Z,100.00
2023-02-12T22:00:43.774Z,100.00
2023-02-12T22:03:19.272Z,100.00
2023-02-12T22:05:52.374Z,100.00
2023-02-12T22:08:25.848Z,100.00
2023-02-12T22:10:59.635Z,100.00
2023-02-12T22:13:33.366Z,100.00
2023-02-12T22:16:10.916Z,100.00
2023-02-12T22:18:46.288Z,100.00
2023-02-12T22:21:19.785Z,100.00
2023-02-12T22:23:53.836Z,100.00
2023-02-12T22:26:29.360Z,100.00
2023-02-12T22:29:06.456Z,100.00
2023-02-12T22:31:42.125Z,100.00
2023-02-12T22:34:18.773Z,100.00
2023-02-12T22:36:52.094Z,100.00
2023-02-12T22:39:25.329Z,100.00
2023-02-12T22:41:58.457Z,100.00
2023-02-12T22:44:31.605Z,100.00
2023-02-12T22:47:05.514Z,100.00
2023-02-12T22:49:40.024Z,100.00
2023-02-12T22:52:13.442Z,100.00
2023-02-12T22:54:46.546Z,100.00
2023-02-12T22:57:19.632Z,100.00
2023-02-12T22:59:52.678Z,100.00
2023-02-12T23:02:25.769Z,100.00
2023-02-12T23:05:00.209Z,100.00
2023-02-12T23:07:33.312Z,100.00
2023-02-12T23:10:08.010Z,100.00
2023-02-12T23:12:41.108Z,100.00
2023-02-12T23:15:14.288Z,100.00
2023-02-12T23:17:47.344Z,100.00
2023-02-12T23:20:21.920Z,100.00
2023-02-12T23:22:55.018Z,100.00
2023-02-12T23:25:28.160Z,100.00
2023-02-12T23:28:01.320Z,100.00
2023-02-12T23:30:34.412Z,100.00
2023-02-12T23:33:07.566Z,100.00
2023-02-12T23:35:42.120Z,100.00
2023-02-12T23:38:16.171Z,100.00
2023-02-12T23:40:49.757Z,100.00
2023-02-12T23:43:23.076Z,100.00
2023-02-12T23:45:56.188Z,100.00
2023-02-12T23:48:29.332Z,100.00
2023-02-12T23:51:03.882Z,100.00
2023-02-12T23:53:37.118Z,100.00
2023-02-12T23:56:10.192Z,100.00
2023-02-12T23:58:43.285Z,100.00
